Nearby METAR Reports

 

KAWO - Arlington Muni, Washington, USA
Distance from station: WSW 26mi, 42km
Updated: Mon, 24-Nov-2014 7:35am PST
Mostly cloudy
Mostly cloudy
 Wind from calm
Wind: Calm
Temperature: 37°F , 3°C
Dew Point: 36°F , 2°C
Humidity: 93%
Barometer: 30.35 inHg , 1027.8 hPa
Clouds: Mostly cloudy
Visibility: 10 miles , 16 km
Cloud details: Partly cloudy 3200 ft
Mostly cloudy 12000 ft
2014/11/24 15:35 KAWO 241535Z AUTO 00000KT 10SM SCT032 BKN120 03/02 A3035 RMK AO1
KPAE - Everett, Washington, USA
Distance from station: SW 39mi, 62km
Updated: Mon, 24-Nov-2014 6:53am PST
Mostly cloudy
Mostly cloudy
 Wind from SSE
Wind: SSE 8 mph , 13 km/h
Temperature: 43°F , 6°C
Wind Chill: 38°F , 3°C
Dew Point: 37°F , 3°C
Humidity: 81%
Barometer: 30.32 inHg , 1026.8 hPa
Clouds: Mostly cloudy
Visibility: 10 miles , 16 km
Cloud details: Few Clouds 1800 ft
Mostly cloudy 12000 ft
2014/11/24 14:53 KPAE 241453Z 15007KT 10SM FEW018 BKN120 06/03 A3032 RMK AO2 SLP270 T00610033 56011 $
 
KBVS - Burlington/Mt V, Washington, USA
Distance from station: WNW 40mi, 64km
Updated: Mon, 24-Nov-2014 7:35am PST
Mostly cloudy
Mostly cloudy
 Wind from calm
Wind: Calm
Temperature: 45°F , 7°C
Dew Point: 41°F , 5°C
Humidity: 87%
Barometer: 30.33 inHg , 1027.1 hPa
Clouds: Mostly cloudy
Visibility: 10 miles , 16 km
Cloud details: Mostly cloudy 2900 ft
Mostly cloudy 12000 ft
2014/11/24 15:35 KBVS 241535Z AUTO 00000KT 10SM BKN029 BKN120 07/05 A3033 RMK A01 P000
KNUW - Whidbey Is. Nas, Washington, USA
Distance from station: W 48mi, 78km
Updated: Mon, 24-Nov-2014 6:56am PST
Overcast
Overcast
 Wind from ESE
Wind: ESE 7 mph , 11 km/h
Temperature: 46°F , 8°C
Wind Chill: 42°F , 6°C
Dew Point: 39°F , 4°C
Humidity: 76%
Barometer: 30.31 inHg , 1026.4 hPa
Clouds: Overcast
Visibility: 10 miles , 16 km
Cloud details: Few Clouds 1800 ft
Partly cloudy 8000 ft
Overcast 16000 ft
2014/11/24 14:56 KNUW 241456Z 11006KT 10SM FEW018 SCT080 OVC160 08/04 A3031 RMK AO2 SLP267 T00830044 55017 $
 
KBLI - Bellingham, Washington, USA
Distance from station: NW 57mi, 91km
Updated: Mon, 24-Nov-2014 6:53am PST
Overcast
Overcast
 Wind from calm
Wind: Calm
Temperature: 43°F , 6°C
Dew Point: 39°F , 4°C
Humidity: 87%
Barometer: 30.31 inHg , 1026.4 hPa
Clouds: Overcast
Visibility: 10 miles , 16 km
Cloud details: Overcast 9500 ft
2014/11/24 14:53 KBLI 241453Z AUTO 00000KT 10SM OVC095 06/04 A3031 RMK AO2 SLP271 T00610044 55013
KBFI - Seattle/Boeing, Washington, USA
Distance from station: SW 58mi, 94km
Updated: Mon, 24-Nov-2014 6:53am PST
Overcast
Overcast
 Wind from SSE
Wind: SSE 6 mph , 9 km/h
Temperature: 41°F , 5°C
Wind Chill: 37°F , 3°C
Dew Point: 36°F , 2°C
Humidity: 81%
Barometer: 30.35 inHg , 1027.8 hPa
Clouds: Overcast
Visibility: 10 miles , 16 km
Cloud details: Mostly cloudy 10000 ft
Overcast 20000 ft
2014/11/24 14:53 KBFI 241453Z 15005KT 10SM BKN100 OVC200 05/02 A3035 RMK AO2 SLP277 T00500022 55003